createdAt,value
2022-11-14T00:01:20.676Z,47.4
2022-11-14T00:06:48.708Z,47.4
2022-11-14T00:12:27.352Z,47.3
2022-11-14T00:17:18.027Z,47.3
2022-11-14T00:22:56.675Z,47.3
2022-11-14T00:28:34.415Z,47.3
2022-11-14T00:34:12.451Z,47.3
2022-11-14T00:39:19.990Z,47.3
2022-11-14T00:44:42.605Z,47.2
2022-11-14T00:50:20.098Z,47.2
2022-11-14T00:55:57.838Z,47.1
2022-11-14T01:01:36.529Z,47.1
2022-11-14T01:07:19.109Z,47.1
2022-11-14T01:12:57.548Z,47.1
2022-11-14T01:18:19.740Z,47
2022-11-14T01:23:46.899Z,47
2022-11-14T01:29:24.609Z,47
2022-11-14T01:35:01.914Z,46.9
2022-11-14T01:40:24.585Z,46.9
2022-11-14T01:46:07.991Z,46.9
2022-11-14T01:51:45.377Z,46.8
2022-11-14T01:57:22.923Z,46.8
2022-11-14T02:02:30.564Z,46.8
2022-11-14T02:08:13.494Z,47.1
2022-11-14T02:13:51.063Z,48.1
2022-11-14T02:20:05.211Z,49.3
2022-11-14T02:25:27.944Z,50.4
2022-11-14T02:30:51.800Z,51.4
2022-11-14T02:36:35.517Z,52.5
2022-11-14T02:42:13.605Z,53.6
2022-11-14T02:47:51.608Z,54.7
2022-11-14T02:53:29.751Z,55.8
2022-11-14T02:58:22.820Z,56.8
2022-11-14T03:08:17.882Z,58.7
2022-11-14T03:13:40.209Z,59.1
2022-11-14T03:19:03.038Z,59.2
2022-11-14T03:24:25.706Z,59.2
2022-11-14T03:30:02.491Z,59.1
2022-11-14T03:35:41.031Z,59.1
2022-11-14T03:41:21.513Z,59.1
2022-11-14T03:46:57.961Z,59.1
2022-11-14T03:52:36.449Z,59
2022-11-14T03:57:43.454Z,59
2022-11-14T04:02:50.176Z,58.9
2022-11-14T04:08:29.225Z,58.9
2022-11-14T04:14:12.118Z,58.9
2022-11-14T04:19:53.767Z,58.9
2022-11-14T04:25:02.014Z,58.8
2022-11-14T04:30:39.706Z,58.8
2022-11-14T04:36:01.505Z,58.8
2022-11-14T04:41:41.015Z,58.7
2022-11-14T04:47:19.982Z,58.7
2022-11-14T04:52:40.988Z,58.6
2022-11-14T05:09:09.646Z,58.5
2022-11-14T05:14:51.187Z,58.5
2022-11-14T05:20:12.690Z,58.4
2022-11-14T05:25:51.682Z,58.4
2022-11-14T05:30:44.741Z,58.4
2022-11-14T05:36:10.681Z,58.3
2022-11-14T05:41:16.756Z,58.3
2022-11-14T05:46:38.731Z,58.3
2022-11-14T05:52:16.952Z,58.2
2022-11-14T05:57:58.980Z,58.2
2022-11-14T06:03:29.123Z,58.1
2022-11-14T06:09:07.705Z,58.1
2022-11-14T06:14:45.596Z,58
2022-11-14T06:20:24.123Z,58
2022-11-14T06:26:01.226Z,57.9
2022-11-14T06:31:42.963Z,57.9
2022-11-14T06:37:20.441Z,57.9
2022-11-14T06:42:58.309Z,57.8
2022-11-14T06:53:53.959Z,57.7
2022-11-14T06:59:23.294Z,57.7
2022-11-14T07:04:45.463Z,57.6
2022-11-14T07:10:07.620Z,57.6
2022-11-14T07:15:28.975Z,57.5
2022-11-14T07:20:55.764Z,57.4
2022-11-14T07:26:17.767Z,57.4
2022-11-14T07:31:45.433Z,57.3
2022-11-14T07:37:07.230Z,57.3
2022-11-14T07:42:29.726Z,57.2
2022-11-14T07:47:52.159Z,57.2
2022-11-14T07:53:13.780Z,57.1
2022-11-14T07:58:39.741Z,57.1
2022-11-14T08:04:19.200Z,57.1
2022-11-14T08:09:40.539Z,57
2022-11-14T08:15:44.354Z,56.9
2022-11-14T08:21:07.164Z,56.9
2022-11-14T08:26:50.591Z,56.8
2022-11-14T08:32:17.485Z,56.8
2022-11-14T08:37:55.615Z,56.8
2022-11-14T08:43:34.443Z,56.7
2022-11-14T08:49:12.232Z,56.7
2022-11-14T08:54:52.063Z,56.6
2022-11-14T09:00:30.275Z,56.6
2022-11-14T09:06:13.775Z,56.5
2022-11-14T09:11:55.594Z,56.4
2022-11-14T09:17:38.505Z,56.4
2022-11-14T09:23:23.576Z,56.3
2022-11-14T09:29:10.444Z,56.3
2022-11-14T09:34:51.712Z,56.3
2022-11-14T09:40:34.729Z,56.2
2022-11-14T09:46:17.752Z,56.2
2022-11-14T09:52:01.063Z,56.1
2022-11-14T09:57:39.384Z,56.1
2022-11-14T10:03:07.746Z,56
2022-11-14T10:08:46.743Z,56
2022-11-14T10:14:25.349Z,55.9
2022-11-14T10:19:49.087Z,55.9
2022-11-14T10:25:26.494Z,55.9
2022-11-14T10:31:11.627Z,55.8
2022-11-14T10:36:57.437Z,55.8
2022-11-14T10:43:04.841Z,55.8
2022-11-14T10:48:30.816Z,55.7
2022-11-14T10:54:09.392Z,55.6
2022-11-14T11:00:27.078Z,55.6
2022-11-14T11:06:05.660Z,55.5
2022-11-14T11:13:14.489Z,55.5
2022-11-14T11:18:46.320Z,55.4
2022-11-14T11:24:11.149Z,55.4
2022-11-14T11:29:49.738Z,55.4
2022-11-14T11:35:28.360Z,55.4
2022-11-14T11:41:11.638Z,55.3
2022-11-14T11:48:12.481Z,55.3
2022-11-14T11:53:34.960Z,55.2
2022-11-14T11:59:18.543Z,55.2
2022-11-14T12:04:47.797Z,55.1
2022-11-14T12:11:01.773Z,55.1
2022-11-14T12:16:45.929Z,55.1
2022-11-14T12:22:31.476Z,55
2022-11-14T12:28:10.197Z,54.9
2022-11-14T12:33:54.440Z,54.9
2022-11-14T12:39:35.543Z,54.8
2022-11-14T12:45:17.009Z,54.8
2022-11-14T12:50:57.484Z,54.8
2022-11-14T12:56:36.187Z,54.8
2022-11-14T13:02:21.038Z,54.8
2022-11-14T13:07:34.234Z,54.8
2022-11-14T13:12:57.444Z,54.8
2022-11-14T13:18:40.652Z,54.8
2022-11-14T13:24:20.899Z,54.8
2022-11-14T13:30:21.697Z,54.8
2022-11-14T13:36:04.949Z,54.8
2022-11-14T13:41:47.690Z,54.7
2022-11-14T13:47:27.152Z,54.7
2022-11-14T13:53:33.429Z,54.7
2022-11-14T13:59:11.914Z,54.6
2022-11-14T14:04:53.405Z,54.6
2022-11-14T14:10:36.974Z,54.6
2022-11-14T14:16:15.515Z,54.5
2022-11-14T14:22:00.498Z,54.5
2022-11-14T14:27:39.054Z,54.4
2022-11-14T14:33:21.530Z,54.4
2022-11-14T14:39:05.305Z,54.4
2022-11-14T14:44:48.302Z,54.3
2022-11-14T14:50:27.317Z,54.3
2022-11-14T14:56:10.287Z,54.3
2022-11-14T15:01:32.723Z,54.3
2022-11-14T15:07:16.642Z,54.2
2022-11-14T15:12:55.488Z,54.2
2022-11-14T15:18:40.598Z,54.1
2022-11-14T15:24:18.795Z,54.1
2022-11-14T15:29:41.633Z,54.1
2022-11-14T15:35:24.019Z,54
2022-11-14T15:41:33.683Z,54
2022-11-14T15:47:11.840Z,53.9
2022-11-14T15:52:50.093Z,53.9
2022-11-14T15:58:54.910Z,53.9
2022-11-14T16:04:32.410Z,53.8
2022-11-14T16:10:11.227Z,53.8
2022-11-14T16:15:24.151Z,53.8
2022-11-14T16:20:46.407Z,53.7
2022-11-14T16:26:13.141Z,53.7
2022-11-14T16:31:35.730Z,53.7
2022-11-14T16:36:58.257Z,53.6
2022-11-14T16:42:36.308Z,53.6
2022-11-14T16:47:50.782Z,53.6
2022-11-14T16:53:27.595Z,53.5
2022-11-14T16:59:05.266Z,53.4
2022-11-14T17:04:45.504Z,53.4
2022-11-14T17:09:58.593Z,53.4
2022-11-14T17:15:37.934Z,53.3
2022-11-14T17:21:16.031Z,53.3
2022-11-14T17:26:43.550Z,53.3
2022-11-14T17:31:37.857Z,53.3
2022-11-14T17:37:00.989Z,53.2
2022-11-14T17:42:38.242Z,53.1
2022-11-14T17:48:15.454Z,53
2022-11-14T17:53:42.952Z,52.6
2022-11-14T17:59:26.995Z,50.1
2022-11-14T18:04:55.291Z,48.8
2022-11-14T18:10:37.137Z,48.6
2022-11-14T18:16:01.267Z,48.5
2022-11-14T18:22:10.805Z,48.4
2022-11-14T18:27:48.610Z,48.4
2022-11-14T18:33:49.496Z,48.4
2022-11-14T18:39:26.817Z,48.3
2022-11-14T18:44:38.922Z,48.3
2022-11-14T18:50:17.977Z,48.2
2022-11-14T18:55:31.056Z,48.2
2022-11-14T19:00:54.192Z,48.2
2022-11-14T19:06:17.138Z,48.1
2022-11-14T19:12:01.519Z,48.1
2022-11-14T19:17:39.579Z,48
2022-11-14T19:23:21.733Z,47.9
2022-11-14T19:29:02.129Z,47.9
2022-11-14T19:34:24.965Z,47.9
2022-11-14T19:40:22.565Z,47.8
2022-11-14T19:46:03.042Z,47.7
2022-11-14T19:51:25.655Z,47.6
2022-11-14T19:57:06.673Z,47.6
2022-11-14T20:02:48.905Z,47.6
2022-11-14T20:08:27.520Z,47.5
2022-11-14T20:14:08.479Z,47.4
2022-11-14T20:19:32.671Z,47.4
2022-11-14T20:24:55.394Z,47.4
2022-11-14T20:30:08.271Z,47.3
2022-11-14T20:35:47.108Z,47.3
2022-11-14T20:41:47.865Z,47.3
2022-11-14T20:47:27.618Z,47.2
2022-11-14T20:52:49.658Z,47.1
2022-11-14T20:58:17.964Z,47.1
2022-11-14T21:03:56.956Z,47.1
2022-11-14T21:09:35.499Z,47
2022-11-14T21:15:12.830Z,46.9
2022-11-14T21:20:49.744Z,46.9
2022-11-14T21:26:18.172Z,46.9
2022-11-14T21:31:56.465Z,46.8
2022-11-14T21:37:54.129Z,46.8
2022-11-14T21:43:36.812Z,46.8
2022-11-14T21:49:14.833Z,46.7
2022-11-14T21:54:38.129Z,46.6
2022-11-14T21:59:46.720Z,46.6
2022-11-14T22:05:28.064Z,46.6
2022-11-14T22:11:08.089Z,46.6
2022-11-14T22:16:46.541Z,46.5
2022-11-14T22:22:14.173Z,46.5
2022-11-14T22:27:35.880Z,46.4
2022-11-14T22:32:57.822Z,46.4
2022-11-14T22:38:36.217Z,46.3
2022-11-14T22:44:20.288Z,46.3
2022-11-14T22:49:57.468Z,46.3
2022-11-14T22:55:19.222Z,46.2
2022-11-14T23:00:25.898Z,46.2
2022-11-14T23:06:10.755Z,46.1
2022-11-14T23:11:48.995Z,46.1
2022-11-14T23:17:27.209Z,46.1
2022-11-14T23:22:51.748Z,46
2022-11-14T23:28:28.981Z,45.9
2022-11-14T23:34:06.589Z,45.9
2022-11-14T23:39:44.405Z,45.9
2022-11-14T23:45:21.121Z,45.8
2022-11-14T23:50:42.716Z,45.8
2022-11-14T23:56:20.376Z,45.8
